createdAt,value
2023-05-09T00:02:40.413Z,14.69
2023-05-09T00:05:29.777Z,14.70
2023-05-09T00:08:18.819Z,14.57
2023-05-09T00:11:07.570Z,14.56
2023-05-09T00:13:56.459Z,14.63
2023-05-09T00:16:46.869Z,14.52
2023-05-09T00:19:35.689Z,14.45
2023-05-09T00:22:24.374Z,14.56
2023-05-09T00:25:13.914Z,14.49
2023-05-09T00:28:02.835Z,14.45
2023-05-09T00:30:51.559Z,14.27
2023-05-09T00:33:41.757Z,14.25
2023-05-09T00:36:30.565Z,14.30
2023-05-09T00:39:19.297Z,14.30
2023-05-09T00:42:07.973Z,14.33
2023-05-09T00:44:56.613Z,14.28
2023-05-09T00:47:45.640Z,14.18
2023-05-09T00:50:35.868Z,14.21
2023-05-09T00:53:26.536Z,14.24
2023-05-09T00:56:16.660Z,14.32
2023-05-09T00:59:06.366Z,14.33
2023-05-09T01:01:56.258Z,14.30
2023-05-09T01:04:46.998Z,14.28
2023-05-09T01:07:47.085Z,14.28
2023-05-09T01:10:47.938Z,14.15
2023-05-09T01:13:50.489Z,14.17
2023-05-09T01:16:48.325Z,14.18
2023-05-09T01:19:58.452Z,13.95
2023-05-09T01:23:13.453Z,14.14
2023-05-09T01:26:06.180Z,14.22
2023-05-09T01:29:32.788Z,14.04
2023-05-09T01:32:27.035Z,14.02
2023-05-09T01:35:18.712Z,14.09
2023-05-09T01:38:14.464Z,14.07
2023-05-09T01:41:05.411Z,14.01
2023-05-09T01:43:57.938Z,14.10
2023-05-09T01:46:50.126Z,14.06
2023-05-09T01:49:42.449Z,14.00
2023-05-09T01:52:33.168Z,13.94
2023-05-09T01:55:26.490Z,13.92
2023-05-09T01:58:20.672Z,13.85
2023-05-09T02:01:11.051Z,13.87
2023-05-09T02:04:03.584Z,13.72
2023-05-09T02:06:53.255Z,13.69
2023-05-09T02:09:42.298Z,13.72
2023-05-09T02:12:33.920Z,13.76
2023-05-09T02:15:23.264Z,13.59
2023-05-09T02:18:12.899Z,13.59
2023-05-09T02:21:04.978Z,13.41
2023-05-09T02:23:54.560Z,13.48
2023-05-09T02:26:44.385Z,13.54
2023-05-09T02:29:40.439Z,13.45
2023-05-09T02:32:35.107Z,13.27
2023-05-09T02:35:27.168Z,13.31
2023-05-09T02:38:17.493Z,13.21
2023-05-09T02:41:07.042Z,13.24
2023-05-09T02:43:56.048Z,13.35
2023-05-09T02:46:44.932Z,13.42
2023-05-09T02:49:33.830Z,13.09
2023-05-09T02:52:24.635Z,13.03
2023-05-09T02:55:15.105Z,13.04
2023-05-09T02:58:13.579Z,13.18
2023-05-09T03:01:04.566Z,13.21
2023-05-09T03:03:53.555Z,13.27
2023-05-09T03:06:44.166Z,13.26
2023-05-09T03:09:35.076Z,13.15
2023-05-09T03:12:25.289Z,13.11
2023-05-09T03:15:16.906Z,13.09
2023-05-09T03:18:08.176Z,13.07
2023-05-09T03:20:57.154Z,13.19
2023-05-09T03:23:46.162Z,13.23
2023-05-09T03:26:36.427Z,13.20
2023-05-09T03:29:26.763Z,13.20
2023-05-09T03:32:16.506Z,13.30
2023-05-09T03:35:06.058Z,13.29
2023-05-09T03:37:55.100Z,13.34
2023-05-09T03:40:43.991Z,13.21
2023-05-09T03:43:34.120Z,12.98
2023-05-09T03:46:24.358Z,13.03
2023-05-09T03:49:13.502Z,13.31
2023-05-09T03:52:02.656Z,13.12
2023-05-09T03:54:51.828Z,13.08
2023-05-09T03:57:40.730Z,12.97
2023-05-09T04:00:29.579Z,12.85
2023-05-09T04:03:28.551Z,12.88
2023-05-09T04:06:17.455Z,13.11
2023-05-09T04:09:06.823Z,13.12
2023-05-09T04:11:55.638Z,13.15
2023-05-09T04:14:46.150Z,13.26
2023-05-09T04:17:36.879Z,13.32
2023-05-09T04:20:27.359Z,13.42
2023-05-09T04:23:16.803Z,13.65
2023-05-09T04:26:06.186Z,13.89
2023-05-09T04:28:55.445Z,13.79
2023-05-09T04:31:44.923Z,13.99
2023-05-09T04:34:35.555Z,14.26
2023-05-09T04:37:32.762Z,14.43
2023-05-09T04:40:25.498Z,14.65
2023-05-09T04:43:20.091Z,14.79
2023-05-09T04:46:09.273Z,14.63
2023-05-09T04:48:59.113Z,14.88
2023-05-09T04:51:48.373Z,14.59
2023-05-09T04:54:39.239Z,14.49
2023-05-09T04:57:28.654Z,14.40
2023-05-09T05:00:19.401Z,14.37
2023-05-09T05:03:09.786Z,14.77
2023-05-09T05:06:01.237Z,15.08
2023-05-09T05:08:50.057Z,14.98
2023-05-09T05:11:45.276Z,15.16
2023-05-09T05:14:42.329Z,15.59
2023-05-09T05:17:33.372Z,15.65
2023-05-09T05:20:24.829Z,15.31
2023-05-09T05:23:13.636Z,15.93
2023-05-09T05:26:02.367Z,16.38
2023-05-09T05:28:56.414Z,16.90
2023-05-09T05:31:46.501Z,17.30
2023-05-09T05:34:35.504Z,17.79
2023-05-09T05:37:24.553Z,17.46
2023-05-09T05:40:13.632Z,17.32
2023-05-09T05:43:06.254Z,16.68
2023-05-09T05:45:58.901Z,17.00
2023-05-09T05:48:49.760Z,17.03
2023-05-09T05:51:38.568Z,17.06
2023-05-09T05:54:31.417Z,16.94
2023-05-09T05:57:21.342Z,16.36
2023-05-09T06:00:11.967Z,16.51
2023-05-09T06:03:14.167Z,17.12
2023-05-09T06:06:08.399Z,17.57
2023-05-09T06:08:57.436Z,17.55
2023-05-09T06:11:46.377Z,16.86
2023-05-09T06:14:35.136Z,16.62
2023-05-09T06:17:24.326Z,17.03
2023-05-09T06:20:14.633Z,16.46
2023-05-09T06:23:03.637Z,16.51
2023-05-09T06:25:52.388Z,16.76
2023-05-09T06:28:41.594Z,16.98
2023-05-09T06:31:31.364Z,17.25
2023-05-09T06:34:20.242Z,17.38
2023-05-09T06:37:10.412Z,17.45
2023-05-09T06:39:59.347Z,16.97
2023-05-09T06:42:48.200Z,17.44
2023-05-09T06:45:37.752Z,16.95
2023-05-09T06:48:26.842Z,17.27
2023-05-09T06:51:16.379Z,17.40
2023-05-09T06:54:06.737Z,17.75
2023-05-09T06:56:55.928Z,18.03
2023-05-09T06:59:46.003Z,17.78
2023-05-09T07:02:34.916Z,17.93
2023-05-09T07:05:23.720Z,18.03
2023-05-09T07:08:12.533Z,18.01
2023-05-09T07:11:02.696Z,18.52
2023-05-09T07:13:51.538Z,18.75
2023-05-09T07:16:40.739Z,18.98
2023-05-09T07:19:29.513Z,18.97
2023-05-09T07:22:18.323Z,18.81
2023-05-09T07:25:10.205Z,19.23
2023-05-09T07:28:00.461Z,19.26
2023-05-09T07:30:49.260Z,18.44
2023-05-09T07:33:38.137Z,18.72
2023-05-09T07:36:27.238Z,19.11
2023-05-09T07:39:16.782Z,19.37
2023-05-09T07:42:05.800Z,19.24
2023-05-09T07:44:56.338Z,19.49
2023-05-09T07:47:45.475Z,19.72
2023-05-09T07:50:34.797Z,20.06
2023-05-09T07:53:23.560Z,19.51
2023-05-09T07:56:13.397Z,19.53
2023-05-09T07:59:03.317Z,19.17
2023-05-09T08:01:53.566Z,19.87
2023-05-09T08:04:42.417Z,20.17
2023-05-09T08:07:33.772Z,20.08
2023-05-09T08:10:23.555Z,19.97
2023-05-09T08:13:12.555Z,20.29
2023-05-09T08:16:02.890Z,21.05
2023-05-09T08:18:53.516Z,21.47
2023-05-09T08:21:42.341Z,21.39
2023-05-09T08:24:31.890Z,21.55
2023-05-09T08:27:20.736Z,21.64
2023-05-09T08:30:11.027Z,21.50
2023-05-09T08:33:00.203Z,21.11
2023-05-09T08:35:53.694Z,20.77
2023-05-09T08:38:42.492Z,21.16
2023-05-09T08:41:36.102Z,20.94
2023-05-09T08:44:25.264Z,21.25
2023-05-09T08:47:15.097Z,21.44
2023-05-09T08:50:04.471Z,21.61
2023-05-09T08:52:55.684Z,21.70
2023-05-09T08:55:44.845Z,21.81
2023-05-09T08:58:35.389Z,21.55
2023-05-09T09:01:27.791Z,21.59
2023-05-09T09:04:16.757Z,22.03
2023-05-09T09:07:08.866Z,22.15
2023-05-09T09:10:00.691Z,21.32
2023-05-09T09:12:50.451Z,20.95
2023-05-09T09:15:41.648Z,21.52
2023-05-09T09:18:35.987Z,21.56
2023-05-09T09:21:25.175Z,21.71
2023-05-09T09:24:15.542Z,21.24
2023-05-09T09:27:08.825Z,21.61
2023-05-09T09:30:26.808Z,21.91
2023-05-09T09:33:22.673Z,22.12
2023-05-09T09:36:11.460Z,22.90
2023-05-09T09:39:01.817Z,22.79
2023-05-09T09:41:50.895Z,23.10
2023-05-09T09:44:41.128Z,23.24
2023-05-09T09:47:33.679Z,23.41
2023-05-09T09:50:25.359Z,22.21
2023-05-09T09:53:14.372Z,22.69
2023-05-09T09:56:03.221Z,23.57
2023-05-09T09:58:51.920Z,23.77
2023-05-09T10:02:06.679Z,23.59
2023-05-09T10:04:56.590Z,22.85
2023-05-09T10:07:45.407Z,23.46
2023-05-09T10:10:37.153Z,24.06
2023-05-09T10:13:27.489Z,24.52
2023-05-09T10:16:17.102Z,24.75
2023-05-09T10:19:08.698Z,25.14
2023-05-09T10:22:00.200Z,25.20
2023-05-09T10:24:57.832Z,25.77
2023-05-09T10:27:52.660Z,25.94
2023-05-09T10:30:59.700Z,25.90
2023-05-09T10:33:50.780Z,26.62
2023-05-09T10:36:41.849Z,26.38
2023-05-09T10:39:32.680Z,26.54
2023-05-09T10:42:25.353Z,27.39
2023-05-09T10:45:14.626Z,27.48
2023-05-09T10:48:09.054Z,27.95
2023-05-09T10:50:58.485Z,28.03
2023-05-09T10:53:51.188Z,27.65
2023-05-09T10:56:39.969Z,28.01
2023-05-09T10:59:38.353Z,27.93
2023-05-09T11:02:29.540Z,28.10
2023-05-09T11:05:20.904Z,28.35
2023-05-09T11:08:30.516Z,27.75
2023-05-09T11:11:25.787Z,28.12
2023-05-09T11:14:33.830Z,27.01
2023-05-09T11:17:32.662Z,27.58
2023-05-09T11:20:29.965Z,28.37
2023-05-09T11:23:20.318Z,28.72
2023-05-09T11:26:10.492Z,27.33
2023-05-09T11:29:02.761Z,26.80
2023-05-09T11:32:09.091Z,27.97
2023-05-09T11:35:09.501Z,27.98
2023-05-09T11:38:02.931Z,28.28
2023-05-09T11:40:56.182Z,27.99
2023-05-09T11:43:45.656Z,27.60
2023-05-09T11:46:35.917Z,28.22
2023-05-09T11:49:27.645Z,28.87
2023-05-09T11:52:16.490Z,29.56
2023-05-09T11:55:10.908Z,28.89
2023-05-09T11:58:01.300Z,28.23
2023-05-09T12:00:50.637Z,27.99
2023-05-09T12:03:45.456Z,29.25
2023-05-09T12:06:34.519Z,27.84
2023-05-09T12:09:23.472Z,28.97
2023-05-09T12:12:13.557Z,29.68
2023-05-09T12:15:05.709Z,30.24
2023-05-09T12:18:07.933Z,28.67
2023-05-09T12:21:00.894Z,28.62
2023-05-09T12:23:51.740Z,29.50
2023-05-09T12:26:42.230Z,30.04
2023-05-09T12:29:31.640Z,30.58
2023-05-09T12:32:20.671Z,30.54
2023-05-09T12:35:11.518Z,29.60
2023-05-09T12:38:01.927Z,29.93
2023-05-09T12:41:03.677Z,30.19
2023-05-09T12:43:53.024Z,28.78
2023-05-09T12:46:42.058Z,28.94
2023-05-09T12:49:32.833Z,29.12
2023-05-09T12:52:22.068Z,29.77
2023-05-09T12:55:15.627Z,29.50
2023-05-09T12:58:05.023Z,29.67
2023-05-09T13:00:56.226Z,29.56
2023-05-09T13:03:45.036Z,27.82
2023-05-09T13:06:37.928Z,28.38
2023-05-09T13:09:28.492Z,27.36
2023-05-09T13:12:21.340Z,27.80
2023-05-09T13:15:12.125Z,28.44
2023-05-09T13:18:01.199Z,27.91
2023-05-09T13:20:49.919Z,28.04
2023-05-09T13:23:38.852Z,28.61
2023-05-09T13:26:28.220Z,29.13
2023-05-09T13:29:18.394Z,28.42
2023-05-09T13:32:07.367Z,28.58
2023-05-09T13:34:56.172Z,28.71
2023-05-09T13:37:44.950Z,27.75
2023-05-09T13:40:33.869Z,28.03
2023-05-09T13:43:22.630Z,27.40
2023-05-09T13:46:12.900Z,27.31
2023-05-09T13:49:01.973Z,27.35
2023-05-09T13:51:50.890Z,26.91
2023-05-09T13:54:39.871Z,27.81
2023-05-09T13:57:28.769Z,27.30
2023-05-09T14:00:18.108Z,26.84
2023-05-09T14:03:08.418Z,26.64
2023-05-09T14:05:57.260Z,27.55
2023-05-09T14:08:46.006Z,28.01
2023-05-09T14:11:34.800Z,28.34
2023-05-09T14:14:25.834Z,27.90
2023-05-09T14:17:14.529Z,28.33
2023-05-09T14:20:05.074Z,28.61
2023-05-09T14:22:55.056Z,28.47
2023-05-09T14:25:43.862Z,27.99
2023-05-09T14:28:36.171Z,27.48
2023-05-09T14:31:25.337Z,27.29
2023-05-09T14:34:14.161Z,27.35
2023-05-09T14:37:07.010Z,27.17
2023-05-09T14:39:55.865Z,27.06
2023-05-09T14:42:44.830Z,26.95
2023-05-09T14:45:34.369Z,26.92
2023-05-09T14:48:23.328Z,27.01
2023-05-09T14:51:12.238Z,26.14
2023-05-09T14:54:04.373Z,26.03
2023-05-09T14:56:53.403Z,26.19
2023-05-09T14:59:42.260Z,26.56
2023-05-09T15:02:31.009Z,26.51
2023-05-09T15:05:22.436Z,25.89
2023-05-09T15:08:11.138Z,25.44
2023-05-09T15:11:01.592Z,26.10
2023-05-09T15:13:51.565Z,26.43
2023-05-09T15:16:40.350Z,26.55
2023-05-09T15:19:31.445Z,25.90
2023-05-09T15:22:20.109Z,25.83
2023-05-09T15:25:10.115Z,26.19
2023-05-09T15:28:00.523Z,26.05
2023-05-09T15:30:49.374Z,26.05
2023-05-09T15:33:40.782Z,25.81
2023-05-09T15:36:30.487Z,25.76
2023-05-09T15:39:19.554Z,25.44
2023-05-09T15:42:08.958Z,25.21
2023-05-09T15:44:59.000Z,25.29
2023-05-09T15:47:48.310Z,25.06
2023-05-09T15:50:37.737Z,25.31
2023-05-09T15:53:27.610Z,25.55
2023-05-09T15:56:16.700Z,25.52
2023-05-09T15:59:05.555Z,25.65
2023-05-09T16:01:57.793Z,25.64
2023-05-09T16:04:46.587Z,25.48
2023-05-09T16:07:35.962Z,24.92
2023-05-09T16:10:24.924Z,24.94
2023-05-09T16:13:13.966Z,24.79
2023-05-09T16:16:03.329Z,24.97
2023-05-09T16:18:53.613Z,25.35
2023-05-09T16:21:42.458Z,25.80
2023-05-09T16:24:31.838Z,26.02
2023-05-09T16:27:21.583Z,26.35
2023-05-09T16:30:12.095Z,26.53
2023-05-09T16:33:00.900Z,26.04
2023-05-09T16:35:51.381Z,25.78
2023-05-09T16:38:40.362Z,25.87
2023-05-09T16:41:29.055Z,25.57
2023-05-09T16:44:18.024Z,25.15
2023-05-09T16:47:06.917Z,24.87
2023-05-09T16:49:55.719Z,24.42
2023-05-09T16:52:45.865Z,24.15
2023-05-09T16:55:34.622Z,23.72
2023-05-09T16:58:23.481Z,23.21
2023-05-09T17:01:12.508Z,23.07
2023-05-09T17:04:01.715Z,22.96
2023-05-09T17:06:51.737Z,22.94
2023-05-09T17:09:41.863Z,22.82
2023-05-09T17:12:30.723Z,22.78
2023-05-09T17:15:19.879Z,22.64
2023-05-09T17:18:08.709Z,22.75
2023-05-09T17:20:57.775Z,22.66
2023-05-09T17:23:46.597Z,22.58
2023-05-09T17:26:36.704Z,22.33
2023-05-09T17:29:26.544Z,22.22
2023-05-09T17:32:16.176Z,21.95
2023-05-09T17:35:06.017Z,21.87
2023-05-09T17:37:54.745Z,21.78
2023-05-09T17:40:44.248Z,21.51
2023-05-09T17:43:39.300Z,21.46
2023-05-09T17:46:28.099Z,21.39
2023-05-09T17:49:17.015Z,21.23
2023-05-09T17:52:06.096Z,21.08
2023-05-09T17:54:54.832Z,20.92
2023-05-09T17:57:43.846Z,20.77
2023-05-09T18:00:34.035Z,20.55
2023-05-09T18:03:23.016Z,20.44
2023-05-09T18:06:12.000Z,19.98
2023-05-09T18:09:03.382Z,19.88
2023-05-09T18:11:52.175Z,19.61
2023-05-09T18:14:41.180Z,19.50
2023-05-09T18:17:31.402Z,19.17
2023-05-09T18:20:20.450Z,19.17
2023-05-09T18:23:09.245Z,18.98
2023-05-09T18:25:59.200Z,18.90
2023-05-09T18:28:48.695Z,18.66
2023-05-09T18:31:39.769Z,18.64
2023-05-09T18:34:30.358Z,18.55
2023-05-09T18:37:19.293Z,18.49
2023-05-09T18:40:14.732Z,18.52
2023-05-09T18:43:03.732Z,18.42
2023-05-09T18:45:53.490Z,18.45
2023-05-09T18:48:42.689Z,18.33
2023-05-09T18:51:33.945Z,18.30
2023-05-09T18:54:22.679Z,18.32
2023-05-09T18:57:11.751Z,18.24
2023-05-09T19:00:00.695Z,18.20
2023-05-09T19:02:51.413Z,18.09
2023-05-09T19:05:40.321Z,17.95
2023-05-09T19:08:31.306Z,17.92
2023-05-09T19:11:20.212Z,17.88
2023-05-09T19:14:09.016Z,17.78
2023-05-09T19:16:57.923Z,17.86
2023-05-09T19:19:46.808Z,17.86
2023-05-09T19:22:36.530Z,17.80
2023-05-09T19:25:27.629Z,17.73
2023-05-09T19:28:18.933Z,17.73
2023-05-09T19:31:08.144Z,17.80
2023-05-09T19:33:56.906Z,17.82
2023-05-09T19:36:45.713Z,17.82
2023-05-09T19:39:34.436Z,17.77
2023-05-09T19:42:24.695Z,17.69
2023-05-09T19:45:13.968Z,17.69
2023-05-09T19:48:03.275Z,17.52
2023-05-09T19:50:58.711Z,17.56
2023-05-09T19:53:47.835Z,17.52
2023-05-09T19:56:36.614Z,17.40
2023-05-09T19:59:26.865Z,17.33
2023-05-09T20:02:15.577Z,17.23
2023-05-09T20:05:04.597Z,17.14
2023-05-09T20:07:53.922Z,16.98
2023-05-09T20:10:42.712Z,16.88
2023-05-09T20:13:31.472Z,16.83
2023-05-09T20:16:22.359Z,16.63
2023-05-09T20:19:14.322Z,16.65
2023-05-09T20:22:04.013Z,16.63
2023-05-09T20:24:52.895Z,16.52
2023-05-09T20:27:41.949Z,16.44
2023-05-09T20:30:32.316Z,16.50
2023-05-09T20:33:22.723Z,16.47
2023-05-09T20:36:11.740Z,16.54
2023-05-09T20:39:00.516Z,16.49
2023-05-09T20:41:51.290Z,16.50
2023-05-09T20:44:42.106Z,16.51
2023-05-09T20:47:31.234Z,16.42
2023-05-09T20:50:21.481Z,16.40
2023-05-09T20:53:10.201Z,16.35
2023-05-09T20:56:00.281Z,16.39
2023-05-09T20:58:48.932Z,16.35
2023-05-09T21:01:40.299Z,16.22
2023-05-09T21:04:29.111Z,16.09
2023-05-09T21:07:19.694Z,15.95
2023-05-09T21:10:11.609Z,15.86
2023-05-09T21:13:00.620Z,15.76
2023-05-09T21:15:50.762Z,15.61
2023-05-09T21:18:39.579Z,15.53
2023-05-09T21:21:28.368Z,15.48
2023-05-09T21:24:18.412Z,15.48
2023-05-09T21:27:07.141Z,15.48
2023-05-09T21:29:55.879Z,15.39
2023-05-09T21:32:44.689Z,15.45
2023-05-09T21:35:33.401Z,15.51
2023-05-09T21:38:22.167Z,15.60
2023-05-09T21:41:12.328Z,15.55
2023-05-09T21:44:00.981Z,15.70
2023-05-09T21:46:49.772Z,15.75
2023-05-09T21:49:38.757Z,15.88
2023-05-09T21:52:27.579Z,15.97
2023-05-09T21:55:17.133Z,16.13
2023-05-09T21:58:07.258Z,16.22
2023-05-09T22:00:56.124Z,16.29
2023-05-09T22:03:45.006Z,16.39
2023-05-09T22:06:34.234Z,16.47
2023-05-09T22:09:23.808Z,16.52
2023-05-09T22:12:12.517Z,16.52
2023-05-09T22:15:03.029Z,16.57
2023-05-09T22:17:51.849Z,16.58
2023-05-09T22:20:40.651Z,16.57
2023-05-09T22:23:29.398Z,16.53
2023-05-09T22:26:18.120Z,16.51
2023-05-09T22:29:06.918Z,16.44
2023-05-09T22:31:57.176Z,16.36
2023-05-09T22:34:48.536Z,16.40
2023-05-09T22:37:37.485Z,16.37
2023-05-09T22:40:26.808Z,16.33
2023-05-09T22:43:15.570Z,16.23
2023-05-09T22:46:04.412Z,16.18
2023-05-09T22:48:54.650Z,16.07
2023-05-09T22:51:43.502Z,16.09
2023-05-09T22:54:32.223Z,16.13
2023-05-09T22:57:23.595Z,16.11
2023-05-09T23:00:14.150Z,16.14
2023-05-09T23:03:04.527Z,16.04
2023-05-09T23:05:54.674Z,16.00
2023-05-09T23:08:43.470Z,16.01
2023-05-09T23:11:32.274Z,16.00
2023-05-09T23:14:21.051Z,15.98
2023-05-09T23:17:09.838Z,16.00
2023-05-09T23:20:00.565Z,15.98
2023-05-09T23:22:51.013Z,16.03
2023-05-09T23:25:39.989Z,16.07
2023-05-09T23:28:28.764Z,16.12
2023-05-09T23:31:17.742Z,16.18
2023-05-09T23:34:06.592Z,16.18
2023-05-09T23:36:55.460Z,16.10
2023-05-09T23:39:45.832Z,16.07
2023-05-09T23:42:37.235Z,16.10
2023-05-09T23:45:26.411Z,16.00
2023-05-09T23:48:15.197Z,15.97
2023-05-09T23:51:04.051Z,16.02
2023-05-09T23:53:53.973Z,15.93
2023-05-09T23:56:44.012Z,16.00
2023-05-09T23:59:32.964Z,15.90
